createdAt,value
2018-10-17T00:01:11.134Z,42.20
2018-10-17T00:03:40.718Z,45.55
2018-10-17T00:06:49.823Z,46.35
2018-10-17T00:09:40.723Z,43.05
2018-10-17T00:16:12.189Z,40.03
2018-10-17T00:18:41.472Z,47.60
2018-10-17T00:21:34.271Z,43.70
2018-10-17T00:24:11.303Z,50.45
2018-10-17T00:26:48.243Z,44.30
2018-10-17T00:29:42.713Z,50.28
2018-10-17T00:32:12.225Z,44.33
2018-10-17T00:34:53.832Z,41.75
2018-10-17T00:37:46.253Z,39.55
2018-10-17T00:40:27.717Z,36.83
2018-10-17T00:43:26.913Z,36.25
2018-10-17T00:46:03.973Z,41.70
2018-10-17T00:48:58.194Z,47.40
2018-10-17T00:51:36.766Z,51.90
2018-10-17T00:54:22.162Z,48.78
2018-10-17T00:56:51.976Z,45.78
2018-10-17T00:59:45.984Z,39.67
2018-10-17T01:02:43.532Z,46.98
2018-10-17T01:06:00.232Z,41.37
2018-10-17T01:08:29.672Z,43.52
2018-10-17T01:11:15.397Z,60.80
2018-10-17T01:13:45.858Z,48.83
2018-10-17T01:16:31.466Z,51.00
2018-10-17T01:19:27.972Z,56.48
2018-10-17T01:22:25.626Z,44.27
2018-10-17T01:25:18.942Z,41.48
2018-10-17T01:27:57.158Z,38.92
2018-10-17T01:30:40.326Z,33.98
2018-10-17T01:33:11.159Z,44.55
2018-10-17T01:35:55.812Z,49.38
2018-10-17T01:38:26.736Z,49.42
2018-10-17T01:41:20.226Z,52.43
2018-10-17T01:43:50.565Z,50.03
2018-10-17T01:46:35.178Z,46.50
2018-10-17T01:49:28.400Z,36.23
2018-10-17T01:52:14.578Z,35.40
2018-10-17T01:54:43.904Z,40.45
2018-10-17T01:57:13.145Z,53.05
2018-10-17T02:00:09.077Z,43.35
2018-10-17T02:03:02.000Z,49.18
2018-10-17T02:05:45.756Z,35.13
2018-10-17T02:08:38.360Z,32.83
2018-10-17T02:11:28.486Z,29.30
2018-10-17T02:14:21.816Z,31.70
2018-10-17T02:17:13.621Z,30.52
2018-10-17T02:19:43.567Z,35.83
2018-10-17T02:22:20.416Z,33.10
2018-10-17T02:25:05.305Z,37.53
2018-10-17T02:27:41.683Z,40.55
2018-10-17T02:30:12.038Z,44.48
2018-10-17T02:33:09.021Z,35.00
2018-10-17T02:37:14.780Z,33.45
2018-10-17T02:39:44.226Z,33.48
2018-10-17T02:42:22.864Z,35.75
2018-10-17T02:45:05.159Z,40.10
2018-10-17T02:47:34.409Z,35.95
2018-10-17T02:50:11.924Z,36.35
2018-10-17T02:52:50.346Z,42.08
2018-10-17T02:55:27.238Z,34.23
2018-10-17T02:58:20.086Z,36.38
2018-10-17T03:01:20.248Z,36.58
2018-10-17T03:04:04.860Z,36.10
2018-10-17T03:06:52.870Z,34.45
2018-10-17T03:09:46.861Z,34.53
2018-10-17T03:12:32.486Z,40.10
2018-10-17T03:15:28.773Z,39.18
2018-10-17T03:18:28.740Z,35.48
2018-10-17T03:20:58.486Z,35.90
2018-10-17T03:23:43.298Z,33.38
2018-10-17T03:26:12.621Z,33.60
2018-10-17T03:28:42.757Z,34.58
2018-10-17T03:31:14.292Z,33.08
2018-10-17T03:37:17.880Z,35.52
2018-10-17T03:39:47.616Z,41.77
2018-10-17T03:42:39.576Z,39.23
2018-10-17T03:45:08.837Z,31.23
2018-10-17T03:47:46.700Z,31.42
2018-10-17T03:50:17.103Z,33.63
2018-10-17T03:52:53.865Z,32.48
2018-10-17T03:55:43.507Z,35.15
2018-10-17T03:58:13.006Z,35.38
2018-10-17T04:00:43.626Z,34.80
2018-10-17T04:03:13.354Z,39.38
2018-10-17T04:05:42.840Z,35.80
2018-10-17T04:08:24.826Z,34.92
2018-10-17T04:11:05.637Z,31.85
2018-10-17T04:13:51.279Z,27.22
2018-10-17T04:16:53.849Z,30.25
2018-10-17T04:19:51.706Z,32.33
2018-10-17T04:22:58.039Z,27.60
2018-10-17T04:26:12.044Z,28.70
2018-10-17T04:28:59.212Z,30.05
2018-10-17T04:31:28.734Z,33.80
2018-10-17T04:33:58.320Z,29.55
2018-10-17T04:36:28.647Z,31.55
2018-10-17T04:38:57.963Z,31.33
2018-10-17T04:41:41.745Z,29.35
2018-10-17T04:44:13.451Z,33.30
2018-10-17T04:46:43.445Z,33.23
2018-10-17T04:49:24.076Z,35.58
2018-10-17T04:51:53.486Z,35.08
2018-10-17T04:54:32.323Z,32.70
2018-10-17T04:57:29.809Z,31.27
2018-10-17T05:00:01.401Z,33.90
2018-10-17T05:02:43.952Z,31.12
2018-10-17T05:05:21.819Z,34.05
2018-10-17T05:07:58.657Z,29.70
2018-10-17T05:10:48.609Z,30.45
2018-10-17T05:13:20.154Z,29.65
2018-10-17T05:15:49.613Z,27.60
2018-10-17T05:18:19.485Z,29.25
2018-10-17T05:20:50.532Z,25.65
2018-10-17T05:23:28.445Z,26.60
2018-10-17T05:26:36.599Z,24.55
2018-10-17T05:29:30.849Z,30.35
2018-10-17T05:32:21.637Z,22.67
2018-10-17T05:35:00.976Z,29.95
2018-10-17T05:37:50.890Z,28.80
2018-10-17T05:40:36.046Z,24.98
2018-10-17T05:43:05.367Z,25.80
2018-10-17T05:46:05.234Z,26.35
2018-10-17T05:48:50.724Z,27.13
2018-10-17T05:51:23.834Z,25.25
2018-10-17T05:54:21.993Z,30.55
2018-10-17T05:57:04.752Z,26.60
2018-10-17T05:59:34.357Z,25.95
2018-10-17T06:02:17.109Z,36.58
2018-10-17T06:05:23.822Z,31.12
2018-10-17T06:07:55.994Z,29.57
2018-10-17T06:10:40.309Z,29.37
2018-10-17T06:13:11.417Z,26.60
2018-10-17T06:15:47.686Z,31.95
2018-10-17T06:18:17.041Z,33.38
2018-10-17T06:20:49.594Z,30.68
2018-10-17T06:23:34.255Z,31.93
2018-10-17T06:26:03.694Z,31.45
2018-10-17T06:28:32.962Z,28.15
2018-10-17T06:31:25.255Z,29.50
2018-10-17T06:34:17.481Z,29.07
2018-10-17T06:37:08.154Z,29.10
2018-10-17T06:39:37.450Z,34.13
2018-10-17T06:42:34.842Z,41.23
2018-10-17T06:45:12.130Z,28.75
2018-10-17T06:47:49.014Z,31.42
2018-10-17T06:50:19.035Z,31.45
2018-10-17T06:53:11.898Z,32.73
2018-10-17T06:55:48.046Z,28.33
2018-10-17T06:59:03.687Z,28.05
2018-10-17T07:02:14.610Z,30.40
2018-10-17T07:04:44.044Z,25.47
2018-10-17T07:07:13.441Z,27.97
2018-10-17T07:10:04.483Z,25.00
2018-10-17T07:12:33.918Z,31.47
2018-10-17T07:15:11.323Z,26.70
2018-10-17T07:17:55.899Z,32.63
2018-10-17T07:20:25.202Z,28.70
2018-10-17T07:22:54.574Z,30.27
2018-10-17T07:25:23.885Z,24.83
2018-10-17T07:27:54.155Z,22.70
2018-10-17T07:30:23.551Z,29.00
2018-10-17T07:32:52.828Z,28.60
2018-10-17T07:35:22.220Z,40.47
2018-10-17T07:37:51.599Z,35.27
2018-10-17T07:40:21.581Z,23.47
2018-10-17T07:42:58.977Z,25.93
2018-10-17T07:45:28.354Z,26.50
2018-10-17T07:51:37.744Z,25.47
2018-10-17T07:54:35.763Z,29.30
2018-10-17T07:57:20.395Z,30.70
2018-10-17T08:00:05.508Z,24.13
2018-10-17T08:02:49.414Z,32.23
2018-10-17T08:05:18.643Z,28.90
2018-10-17T08:07:55.618Z,26.53
2018-10-17T08:10:29.968Z,27.07
2018-10-17T08:13:00.166Z,24.00
2018-10-17T08:15:36.997Z,30.27
2018-10-17T08:18:14.280Z,31.23
2018-10-17T08:20:46.883Z,31.13
2018-10-17T08:23:24.321Z,22.17
2018-10-17T08:26:16.172Z,31.77
2018-10-17T08:33:00.952Z,28.23
2018-10-17T08:35:59.670Z,34.20
2018-10-17T09:58:00.034Z,30.67
2018-10-17T10:07:24.839Z,30.97
2018-10-17T10:44:06.233Z,24.60
2018-10-17T10:46:43.953Z,23.17
2018-10-17T11:15:17.706Z,17.53
2018-10-17T11:17:46.973Z,18.03
2018-10-17T11:20:16.221Z,17.37
2018-10-17T11:26:41.492Z,15.70
2018-10-17T11:33:06.223Z,17.90
2018-10-17T11:36:14.921Z,19.50
2018-10-17T11:39:05.695Z,20.60
2018-10-17T11:41:47.546Z,19.77
2018-10-17T11:44:50.244Z,16.10
2018-10-17T11:48:06.095Z,19.37
2018-10-17T11:50:36.170Z,18.80
2018-10-17T11:53:13.683Z,20.60
2018-10-17T11:55:51.264Z,19.23
2018-10-17T11:58:38.599Z,18.90
2018-10-17T12:01:22.564Z,18.27
2018-10-17T12:03:52.978Z,14.17
2018-10-17T12:06:23.476Z,14.80
2018-10-17T12:09:01.305Z,15.13
2018-10-17T12:11:51.939Z,17.33
2018-10-17T12:14:21.196Z,19.67
2018-10-17T12:19:59.596Z,13.43
2018-10-17T12:22:45.298Z,19.70
2018-10-17T12:26:00.274Z,16.23
2018-10-17T12:32:13.425Z,20.80
2018-10-17T12:34:44.168Z,14.90
2018-10-17T12:37:13.760Z,12.87
2018-10-17T12:40:22.695Z,13.80
2018-10-17T12:42:51.894Z,11.50
2018-10-17T12:45:21.233Z,17.70
2018-10-17T12:51:37.716Z,15.07
2018-10-17T12:57:52.154Z,16.20
2018-10-17T13:00:21.384Z,17.10
2018-10-17T13:02:50.945Z,13.80
2018-10-17T13:05:34.272Z,19.27
2018-10-17T13:08:17.210Z,18.70
2018-10-17T13:14:41.554Z,15.27
2018-10-17T13:17:12.019Z,13.57
2018-10-17T13:23:24.398Z,20.30
2018-10-17T13:25:53.779Z,18.43
2018-10-17T13:28:24.497Z,11.87
2018-10-17T13:30:54.100Z,17.33
2018-10-17T13:33:23.320Z,14.40
2018-10-17T13:35:52.738Z,12.63
2018-10-17T13:38:22.082Z,16.50
2018-10-17T13:40:51.781Z,14.60
2018-10-17T13:43:21.070Z,12.67
2018-10-17T13:45:50.297Z,12.67
2018-10-17T13:48:54.323Z,15.13
2018-10-17T13:51:24.264Z,14.20
2018-10-17T13:53:55.420Z,15.80
2018-10-17T13:56:25.610Z,11.50
2018-10-17T13:58:56.232Z,11.30
2018-10-17T14:01:25.902Z,15.43
2018-10-17T14:03:55.830Z,12.00
2018-10-17T14:06:25.882Z,14.70
2018-10-17T14:08:55.242Z,12.30
2018-10-17T14:11:25.734Z,15.00
2018-10-17T14:13:55.276Z,12.40
2018-10-17T14:16:24.756Z,14.27
2018-10-17T14:18:54.719Z,17.90
2018-10-17T14:21:24.302Z,15.03
2018-10-17T14:23:54.000Z,11.43
2018-10-17T14:26:23.356Z,12.33
2018-10-17T14:29:19.660Z,13.20
2018-10-17T14:31:48.997Z,10.87
2018-10-17T14:34:18.271Z,11.43
2018-10-17T14:36:47.701Z,14.93
2018-10-17T14:39:17.112Z,12.23
2018-10-17T14:41:46.381Z,14.40
2018-10-17T14:44:15.722Z,14.33
2018-10-17T14:46:45.036Z,12.43
2018-10-17T14:49:15.946Z,12.43
2018-10-17T14:51:45.570Z,13.70
2018-10-17T14:54:15.996Z,14.10
2018-10-17T14:56:45.243Z,12.20
2018-10-17T14:59:15.780Z,11.93
2018-10-17T15:01:45.658Z,11.60
2018-10-17T15:04:16.439Z,12.97
2018-10-17T15:06:45.857Z,12.87
2018-10-17T15:09:15.177Z,13.63
2018-10-17T15:11:44.548Z,10.43
2018-10-17T15:14:14.282Z,11.63
2018-10-17T15:16:43.927Z,10.07
2018-10-17T15:19:13.674Z,11.10
2018-10-17T15:21:43.150Z,12.90
2018-10-17T15:24:13.662Z,9.93
2018-10-17T15:26:42.871Z,12.80
2018-10-17T15:29:12.788Z,10.50
2018-10-17T15:31:42.538Z,12.40
2018-10-17T15:34:13.275Z,11.97
2018-10-17T15:36:42.608Z,13.13
2018-10-17T15:39:13.059Z,11.03
2018-10-17T15:41:42.401Z,14.43
2018-10-17T15:44:11.859Z,12.97
2018-10-17T15:46:41.490Z,9.37
2018-10-17T15:49:11.323Z,12.97
2018-10-17T15:51:40.987Z,13.37
2018-10-17T15:54:10.943Z,12.23
2018-10-17T15:56:41.625Z,13.03
2018-10-17T15:59:10.947Z,13.90
2018-10-17T16:01:40.991Z,12.73
2018-10-17T16:04:10.485Z,13.50
2018-10-17T16:06:39.758Z,10.83
2018-10-17T16:09:12.093Z,9.77
2018-10-17T16:11:41.536Z,8.20
2018-10-17T16:14:11.544Z,9.37
2018-10-17T16:16:40.675Z,11.50
2018-10-17T16:19:10.459Z,11.20
2018-10-17T16:21:39.985Z,10.80
2018-10-17T16:24:09.329Z,9.10
2018-10-17T16:26:39.343Z,8.77
2018-10-17T16:29:08.808Z,9.40
2018-10-17T16:31:38.162Z,8.70
2018-10-17T16:34:07.509Z,9.30
2018-10-17T16:36:36.907Z,10.93
2018-10-17T16:39:18.951Z,12.43
2018-10-17T16:41:48.222Z,9.83
2018-10-17T16:44:17.666Z,8.90
2018-10-17T16:46:47.605Z,11.10
2018-10-17T16:49:17.079Z,10.17
2018-10-17T16:51:48.152Z,9.07
2018-10-17T16:54:19.514Z,9.30
2018-10-17T16:56:49.504Z,10.97
2018-10-17T16:59:19.597Z,11.13
2018-10-17T17:01:48.841Z,13.30
2018-10-17T17:04:19.119Z,12.57
2018-10-17T17:06:48.602Z,10.53
2018-10-17T17:09:18.580Z,10.90
2018-10-17T17:11:47.842Z,10.83
2018-10-17T17:14:17.598Z,10.00
2018-10-17T17:17:03.601Z,14.87
2018-10-17T17:19:33.182Z,15.00
2018-10-17T17:22:02.495Z,11.73
2018-10-17T17:24:31.773Z,13.27
2018-10-17T17:27:02.312Z,12.70
2018-10-17T17:29:32.430Z,13.50
2018-10-17T17:32:01.956Z,12.83
2018-10-17T17:34:31.403Z,14.00
2018-10-17T17:37:00.651Z,13.47
2018-10-17T17:39:30.463Z,13.03
2018-10-17T17:42:00.683Z,13.20
2018-10-17T17:44:30.364Z,14.43
2018-10-17T17:47:01.014Z,13.20
2018-10-17T17:49:30.310Z,15.37
2018-10-17T17:51:59.739Z,15.30
2018-10-17T17:54:29.451Z,14.00
2018-10-17T17:56:58.806Z,11.47
2018-10-17T17:59:28.571Z,14.77
2018-10-17T18:01:58.561Z,15.40
2018-10-17T18:04:27.993Z,14.40
2018-10-17T18:06:58.982Z,15.73
2018-10-17T18:09:28.389Z,12.60
2018-10-17T18:11:58.203Z,13.93
2018-10-17T18:14:28.485Z,10.30
2018-10-17T18:16:57.726Z,12.97
2018-10-17T18:19:27.498Z,12.53
2018-10-17T18:21:57.463Z,15.87
2018-10-17T18:24:26.686Z,15.47
2018-10-17T18:26:58.087Z,15.83
2018-10-17T18:29:34.395Z,16.23
2018-10-17T18:32:05.768Z,12.23
2018-10-17T18:34:36.949Z,15.00
2018-10-17T18:37:08.526Z,15.63
2018-10-17T18:39:39.378Z,13.73
2018-10-17T18:42:09.431Z,17.57
2018-10-17T18:44:39.845Z,18.70
2018-10-17T18:47:10.123Z,14.10
2018-10-17T18:49:39.445Z,18.53
2018-10-17T18:52:08.689Z,20.40
2018-10-17T18:54:39.741Z,17.57
2018-10-17T18:57:09.238Z,19.60
2018-10-17T18:59:42.324Z,13.97
2018-10-17T19:02:12.595Z,15.47
2018-10-17T19:04:42.151Z,20.23
2018-10-17T19:07:17.139Z,18.20
2018-10-17T19:09:47.685Z,19.97
2018-10-17T19:12:18.182Z,22.50
2018-10-17T19:14:48.842Z,24.13
2018-10-17T19:17:18.401Z,20.13
2018-10-17T19:19:49.931Z,22.13
2018-10-17T19:22:19.710Z,16.87
2018-10-17T19:24:49.432Z,21.17
2018-10-17T19:27:18.695Z,19.97
2018-10-17T19:29:48.121Z,18.50
2018-10-17T19:32:17.421Z,13.80
2018-10-17T19:34:47.439Z,17.23
2018-10-17T19:37:16.669Z,15.13
2018-10-17T19:39:46.823Z,15.47
2018-10-17T19:42:15.981Z,18.30
2018-10-17T19:44:45.274Z,20.47
2018-10-17T19:47:14.610Z,23.97
2018-10-17T19:49:44.436Z,24.00
2018-10-17T19:52:13.681Z,20.63
2018-10-17T19:54:43.002Z,23.47
2018-10-17T19:57:12.313Z,23.80
2018-10-17T19:59:41.535Z,22.03
2018-10-17T20:02:10.894Z,20.13
2018-10-17T20:04:40.063Z,15.87
2018-10-17T20:07:09.249Z,17.77
2018-10-17T20:09:38.434Z,16.20
2018-10-17T20:12:07.988Z,19.37
2018-10-17T20:14:37.584Z,20.33
2018-10-17T20:17:07.878Z,19.50
2018-10-17T20:19:37.166Z,17.43
2018-10-17T20:22:08.826Z,17.67
2018-10-17T20:24:38.021Z,23.33
2018-10-17T20:27:08.303Z,17.80
2018-10-17T20:29:38.484Z,16.83
2018-10-17T20:32:08.674Z,17.97
2018-10-17T20:34:38.380Z,17.67
2018-10-17T20:37:07.920Z,17.23
2018-10-17T20:39:37.544Z,15.93
2018-10-17T20:42:09.112Z,16.87
2018-10-17T20:44:40.821Z,24.77
2018-10-17T20:47:12.514Z,21.27
2018-10-17T20:49:42.401Z,21.27
2018-10-17T20:52:12.056Z,21.87
2018-10-17T20:54:41.342Z,18.60
2018-10-17T20:57:10.827Z,27.20
2018-10-17T20:59:40.979Z,21.03
2018-10-17T21:02:11.070Z,21.30
2018-10-17T21:04:42.316Z,25.73
2018-10-17T21:07:13.463Z,22.57
2018-10-17T21:09:43.559Z,18.07
2018-10-17T21:12:13.304Z,16.03
2018-10-17T21:14:43.514Z,16.80
2018-10-17T21:17:12.935Z,20.32
2018-10-17T21:19:42.209Z,31.27
2018-10-17T21:22:15.722Z,23.73
2018-10-17T21:24:46.139Z,22.60
2018-10-17T21:27:15.931Z,24.20
2018-10-17T21:29:45.441Z,28.77
2018-10-17T21:32:15.084Z,28.10
2018-10-17T21:34:45.354Z,23.80
2018-10-17T21:37:15.566Z,18.13
2018-10-17T21:39:47.392Z,22.03
2018-10-17T21:42:18.616Z,23.37
2018-10-17T21:44:49.125Z,19.93
2018-10-17T21:47:20.935Z,21.77
2018-10-17T21:49:52.305Z,28.10
2018-10-17T21:52:23.413Z,27.27
2018-10-17T21:56:22.515Z,26.10
2018-10-17T21:58:51.885Z,25.50
2018-10-17T22:01:22.153Z,26.33
2018-10-17T22:03:51.502Z,23.70
2018-10-17T22:06:22.092Z,20.80
2018-10-17T22:08:51.312Z,28.85
2018-10-17T22:11:21.070Z,29.27
2018-10-17T22:13:52.131Z,27.73
2018-10-17T22:16:25.049Z,22.00
2018-10-17T22:18:57.114Z,29.93
2018-10-17T22:21:27.208Z,26.40
2018-10-17T22:23:56.533Z,26.87
2018-10-17T22:26:26.392Z,23.77
2018-10-17T22:28:56.877Z,28.07
2018-10-17T22:31:27.716Z,22.00
2018-10-17T22:33:58.120Z,29.23
2018-10-17T22:36:28.774Z,30.03
2018-10-17T22:39:02.288Z,23.17
2018-10-17T22:41:31.571Z,37.77
2018-10-17T22:44:03.716Z,29.40
2018-10-17T22:46:33.651Z,29.70
2018-10-17T22:49:04.158Z,30.07
2018-10-17T22:51:34.012Z,29.60
2018-10-17T22:54:05.361Z,27.73
2018-10-17T22:56:40.143Z,28.80
2018-10-17T22:59:11.955Z,32.67
2018-10-17T23:01:49.217Z,30.70
2018-10-17T23:04:18.990Z,36.73
2018-10-17T23:06:52.803Z,31.30
2018-10-17T23:09:24.695Z,33.13
2018-10-17T23:11:55.927Z,32.30
2018-10-17T23:14:25.243Z,33.20
2018-10-17T23:16:56.602Z,33.80
2018-10-17T23:19:25.971Z,31.90
2018-10-17T23:21:55.323Z,36.53
2018-10-17T23:24:28.291Z,33.07
2018-10-17T23:26:58.260Z,39.60
2018-10-17T23:29:33.031Z,33.50
2018-10-17T23:32:02.453Z,34.10
2018-10-17T23:34:32.110Z,30.43
2018-10-17T23:37:01.773Z,27.45
2018-10-17T23:39:34.800Z,29.72
2018-10-17T23:42:04.569Z,33.90
2018-10-17T23:44:37.525Z,29.80
2018-10-17T23:47:07.325Z,25.10
2018-10-17T23:49:38.491Z,27.58
2018-10-17T23:52:08.767Z,26.03
2018-10-17T23:54:39.553Z,25.68
2018-10-17T23:57:09.663Z,28.95
2018-10-17T23:59:39.355Z,30.72
